sensor_id;sensor_type;location;lat;lon;timestamp;pressure;altitude;pressure_sealevel;temperature;humidity
61384;BME280;63511;49.346;8.798;2023-04-02T00:01:33;99386.66;;;10.92;89.35
61384;BME280;63511;49.346;8.798;2023-04-02T00:04:10;99387.78;;;11.15;88.84
61384;BME280;63511;49.346;8.798;2023-04-02T00:06:38;99394.06;;;11.05;89.10
61384;BME280;63511;49.346;8.798;2023-04-02T00:09:23;99396.94;;;11.29;88.53
61384;BME280;63511;49.346;8.798;2023-04-02T00:11:51;99396.97;;;11.13;88.96
61384;BME280;63511;49.346;8.798;2023-04-02T00:14:23;99398.97;;;11.02;89.37
61384;BME280;63511;49.346;8.798;2023-04-02T00:16:50;99409.91;;;11.19;89.41
61384;BME280;63511;49.346;8.798;2023-04-02T00:19:17;99409.38;;;11.08;89.58
61384;BME280;63511;49.346;8.798;2023-04-02T00:21:44;99405.66;;;11.18;89.89
61384;BME280;63511;49.346;8.798;2023-04-02T00:24:13;99413.72;;;10.78;90.95
61384;BME280;63511;49.346;8.798;2023-04-02T00:26:43;99415.78;;;10.85;90.69
61384;BME280;63511;49.346;8.798;2023-04-02T00:29:10;99413.72;;;10.94;90.66
61384;BME280;63511;49.346;8.798;2023-04-02T00:31:38;99419.19;;;10.86;90.65
61384;BME280;63511;49.346;8.798;2023-04-02T00:34:06;99422.91;;;10.92;91.35
61384;BME280;63511;49.346;8.798;2023-04-02T00:36:33;99416.03;;;10.90;90.93
61384;BME280;63511;49.346;8.798;2023-04-02T00:39:00;99412.94;;;10.95;91.08
61384;BME280;63511;49.346;8.798;2023-04-02T00:41:28;99415.00;;;11.02;91.49
61384;BME280;63511;49.346;8.798;2023-04-02T00:43:57;99416.41;;;11.14;90.48
61384;BME280;63511;49.346;8.798;2023-04-02T00:46:26;99421.16;;;11.07;89.97
61384;BME280;63511;49.346;8.798;2023-04-02T00:48:56;99421.56;;;11.33;89.49
61384;BME280;63511;49.346;8.798;2023-04-02T00:51:25;99418.66;;;11.25;88.92
61384;BME280;63511;49.346;8.798;2023-04-02T00:53:53;99421.25;;;11.27;89.13
61384;BME280;63511;49.346;8.798;2023-04-02T00:56:21;99415.13;;;11.05;90.38
61384;BME280;63511;49.346;8.798;2023-04-02T00:58:51;99416.66;;;11.02;90.86
61384;BME280;63511;49.346;8.798;2023-04-02T01:01:21;99414.22;;;11.03;90.64
61384;BME280;63511;49.346;8.798;2023-04-02T01:03:52;99421.81;;;10.87;91.01
61384;BME280;63511;49.346;8.798;2023-04-02T01:06:22;99419.78;;;11.14;89.56
61384;BME280;63511;49.346;8.798;2023-04-02T01:08:56;99428.50;;;10.87;90.36
61384;BME280;63511;49.346;8.798;2023-04-02T01:11:30;99438.44;;;10.84;90.86
61384;BME280;63511;49.346;8.798;2023-04-02T01:13:58;99421.50;;;11.15;90.35
61384;BME280;63511;49.346;8.798;2023-04-02T01:16:31;99423.81;;;11.11;90.18
61384;BME280;63511;49.346;8.798;2023-04-02T01:19:01;99428.09;;;10.95;90.32
61384;BME280;63511;49.346;8.798;2023-04-02T01:21:36;99437.34;;;10.95;90.86
61384;BME280;63511;49.346;8.798;2023-04-02T01:24:07;99435.91;;;11.00;91.28
61384;BME280;63511;49.346;8.798;2023-04-02T01:26:52;99436.47;;;10.94;91.05
61384;BME280;63511;49.346;8.798;2023-04-02T01:29:23;99433.13;;;11.12;91.31
61384;BME280;63511;49.346;8.798;2023-04-02T01:31:51;99430.06;;;11.01;91.58
61384;BME280;63511;49.346;8.798;2023-04-02T01:34:20;99432.78;;;11.38;89.32
61384;BME280;63511;49.346;8.798;2023-04-02T01:36:50;99438.59;;;11.03;90.82
61384;BME280;63511;49.346;8.798;2023-04-02T01:39:23;99446.97;;;11.02;90.59
61384;BME280;63511;49.346;8.798;2023-04-02T01:41:53;99447.28;;;10.92;90.75
61384;BME280;63511;49.346;8.798;2023-04-02T01:44:25;99449.00;;;11.09;90.94
61384;BME280;63511;49.346;8.798;2023-04-02T01:46:53;99459.91;;;10.92;90.78
61384;BME280;63511;49.346;8.798;2023-04-02T01:49:22;99460.94;;;11.12;90.57
61384;BME280;63511;49.346;8.798;2023-04-02T01:51:50;99457.28;;;11.23;90.23
61384;BME280;63511;49.346;8.798;2023-04-02T01:54:17;99466.28;;;11.34;89.44
61384;BME280;63511;49.346;8.798;2023-04-02T01:56:43;99469.72;;;11.36;89.00
61384;BME280;63511;49.346;8.798;2023-04-02T01:59:11;99465.63;;;11.38;88.76
61384;BME280;63511;49.346;8.798;2023-04-02T02:01:39;99463.88;;;11.37;88.45
61384;BME280;63511;49.346;8.798;2023-04-02T02:04:09;99465.22;;;11.30;89.40
61384;BME280;63511;49.346;8.798;2023-04-02T02:06:37;99466.84;;;11.28;88.78
61384;BME280;63511;49.346;8.798;2023-04-02T02:09:04;99470.41;;;10.99;90.03
61384;BME280;63511;49.346;8.798;2023-04-02T02:11:31;99470.06;;;11.09;90.58
61384;BME280;63511;49.346;8.798;2023-04-02T02:14:01;99467.41;;;11.06;89.88
61384;BME280;63511;49.346;8.798;2023-04-02T02:16:30;99471.91;;;11.12;89.96
61384;BME280;63511;49.346;8.798;2023-04-02T02:18:59;99475.34;;;11.14;90.52
61384;BME280;63511;49.346;8.798;2023-04-02T02:21:28;99481.16;;;10.95;91.06
61384;BME280;63511;49.346;8.798;2023-04-02T02:23:57;99480.13;;;10.92;90.61
61384;BME280;63511;49.346;8.798;2023-04-02T02:26:25;99486.19;;;11.12;89.95
61384;BME280;63511;49.346;8.798;2023-04-02T02:28:54;99482.56;;;11.23;89.46
61384;BME280;63511;49.346;8.798;2023-04-02T02:31:22;99481.84;;;11.09;89.67
61384;BME280;63511;49.346;8.798;2023-04-02T02:33:52;99494.78;;;10.99;89.67
61384;BME280;63511;49.346;8.798;2023-04-02T02:36:22;99486.50;;;11.18;90.10
61384;BME280;63511;49.346;8.798;2023-04-02T02:38:50;99489.91;;;11.02;90.37
61384;BME280;63511;49.346;8.798;2023-04-02T02:41:21;99497.97;;;11.11;90.19
61384;BME280;63511;49.346;8.798;2023-04-02T02:43:53;99505.53;;;11.27;89.23
61384;BME280;63511;49.346;8.798;2023-04-02T02:46:23;99498.59;;;11.57;88.47
61384;BME280;63511;49.346;8.798;2023-04-02T02:48:51;99502.88;;;11.58;88.02
61384;BME280;63511;49.346;8.798;2023-04-02T02:51:19;99505.94;;;11.19;88.49
61384;BME280;63511;49.346;8.798;2023-04-02T02:53:50;99511.78;;;11.18;88.81
61384;BME280;63511;49.346;8.798;2023-04-02T02:56:19;99509.16;;;11.00;90.12
61384;BME280;63511;49.346;8.798;2023-04-02T02:58:47;99515.19;;;11.02;91.26
61384;BME280;63511;49.346;8.798;2023-04-02T03:01:16;99515.13;;;10.70;91.20
61384;BME280;63511;49.346;8.798;2023-04-02T03:03:43;99521.38;;;10.76;91.51
61384;BME280;63511;49.346;8.798;2023-04-02T03:06:12;99523.53;;;11.01;91.14
61384;BME280;63511;49.346;8.798;2023-04-02T03:08:41;99522.69;;;11.17;89.13
61384;BME280;63511;49.346;8.798;2023-04-02T03:11:10;99526.13;;;10.70;90.16
61384;BME280;63511;49.346;8.798;2023-04-02T03:13:39;99527.44;;;10.63;90.87
61384;BME280;63511;49.346;8.798;2023-04-02T03:16:11;99532.75;;;10.84;91.17
61384;BME280;63511;49.346;8.798;2023-04-02T03:18:42;99535.34;;;10.70;90.69
61384;BME280;63511;49.346;8.798;2023-04-02T03:21:14;99529.47;;;11.01;89.69
61384;BME280;63511;49.346;8.798;2023-04-02T03:23:42;99542.63;;;10.96;90.00
61384;BME280;63511;49.346;8.798;2023-04-02T03:26:13;99538.56;;;10.98;89.90
61384;BME280;63511;49.346;8.798;2023-04-02T03:28:40;99540.56;;;10.89;89.46
61384;BME280;63511;49.346;8.798;2023-04-02T03:31:09;99539.72;;;11.04;89.92
61384;BME280;63511;49.346;8.798;2023-04-02T03:33:38;99546.13;;;11.14;89.41
61384;BME280;63511;49.346;8.798;2023-04-02T03:36:11;99545.28;;;11.14;90.07
61384;BME280;63511;49.346;8.798;2023-04-02T03:38:40;99547.06;;;11.00;89.64
61384;BME280;63511;49.346;8.798;2023-04-02T03:41:10;99550.91;;;10.93;89.76
61384;BME280;63511;49.346;8.798;2023-04-02T03:43:42;99555.19;;;11.11;89.38
61384;BME280;63511;49.346;8.798;2023-04-02T03:46:13;99558.06;;;11.17;88.74
61384;BME280;63511;49.346;8.798;2023-04-02T03:48:44;99558.13;;;11.02;88.68
61384;BME280;63511;49.346;8.798;2023-04-02T03:51:13;99560.25;;;11.27;88.51
61384;BME280;63511;49.346;8.798;2023-04-02T03:53:43;99564.66;;;11.15;88.58
61384;BME280;63511;49.346;8.798;2023-04-02T03:56:10;99575.19;;;11.22;88.43
61384;BME280;63511;49.346;8.798;2023-04-02T03:58:45;99576.22;;;11.58;87.06
61384;BME280;63511;49.346;8.798;2023-04-02T04:01:16;99579.53;;;11.41;87.62
61384;BME280;63511;49.346;8.798;2023-04-02T04:03:45;99575.44;;;11.59;86.70
61384;BME280;63511;49.346;8.798;2023-04-02T04:06:14;99585.56;;;11.75;86.71
61384;BME280;63511;49.346;8.798;2023-04-02T04:08:42;99585.34;;;11.72;85.83
61384;BME280;63511;49.346;8.798;2023-04-02T04:11:12;99586.31;;;11.90;84.78
61384;BME280;63511;49.346;8.798;2023-04-02T04:13:40;99590.63;;;11.75;85.50
61384;BME280;63511;49.346;8.798;2023-04-02T04:16:12;99585.91;;;11.99;83.66
61384;BME280;63511;49.346;8.798;2023-04-02T04:18:42;99593.78;;;12.05;83.29
61384;BME280;63511;49.346;8.798;2023-04-02T04:21:13;99594.13;;;11.95;83.74
61384;BME280;63511;49.346;8.798;2023-04-02T04:23:40;99599.34;;;11.98;83.46
61384;BME280;63511;49.346;8.798;2023-04-02T04:26:16;99596.88;;;12.00;83.01
61384;BME280;63511;49.346;8.798;2023-04-02T04:28:46;99601.16;;;12.01;83.53
61384;BME280;63511;49.346;8.798;2023-04-02T04:31:25;99607.09;;;12.01;82.79
61384;BME280;63511;49.346;8.798;2023-04-02T04:33:55;99624.00;;;11.21;87.14
61384;BME280;63511;49.346;8.798;2023-04-02T04:36:28;99616.59;;;11.57;86.39
61384;BME280;63511;49.346;8.798;2023-04-02T04:38:58;99616.31;;;11.20;86.77
61384;BME280;63511;49.346;8.798;2023-04-02T04:41:26;99623.59;;;11.30;86.90
61384;BME280;63511;49.346;8.798;2023-04-02T04:43:54;99614.22;;;11.60;86.14
61384;BME280;63511;49.346;8.798;2023-04-02T04:46:26;99623.53;;;11.61;86.63
61384;BME280;63511;49.346;8.798;2023-04-02T04:48:55;99629.03;;;11.21;86.82
61384;BME280;63511;49.346;8.798;2023-04-02T04:51:23;99638.03;;;11.16;87.36
61384;BME280;63511;49.346;8.798;2023-04-02T04:53:52;99637.66;;;11.25;86.98
61384;BME280;63511;49.346;8.798;2023-04-02T04:56:20;99641.50;;;11.65;85.74
61384;BME280;63511;49.346;8.798;2023-04-02T04:58:49;99644.03;;;11.02;88.66
61384;BME280;63511;49.346;8.798;2023-04-02T05:01:18;99650.19;;;11.54;86.91
61384;BME280;63511;49.346;8.798;2023-04-02T05:03:49;99655.47;;;11.59;86.38
61384;BME280;63511;49.346;8.798;2023-04-02T05:06:20;99659.03;;;11.15;87.37
61384;BME280;63511;49.346;8.798;2023-04-02T05:08:48;99669.44;;;11.36;86.39
61384;BME280;63511;49.346;8.798;2023-04-02T05:11:19;99660.72;;;11.31;87.92
61384;BME280;63511;49.346;8.798;2023-04-02T05:13:48;99663.34;;;11.79;84.66
61384;BME280;63511;49.346;8.798;2023-04-02T05:16:16;99667.09;;;12.04;83.62
61384;BME280;63511;49.346;8.798;2023-04-02T05:18:49;99675.00;;;12.10;82.98
61384;BME280;63511;49.346;8.798;2023-04-02T05:21:19;99679.56;;;11.68;85.39
61384;BME280;63511;49.346;8.798;2023-04-02T05:23:48;99685.09;;;11.76;85.57
61384;BME280;63511;49.346;8.798;2023-04-02T05:26:18;99686.75;;;11.91;84.37
61384;BME280;63511;49.346;8.798;2023-04-02T05:28:49;99684.66;;;12.01;83.80
61384;BME280;63511;49.346;8.798;2023-04-02T05:31:18;99695.81;;;12.04;83.34
61384;BME280;63511;49.346;8.798;2023-04-02T05:33:46;99699.03;;;11.69;86.60
61384;BME280;63511;49.346;8.798;2023-04-02T05:36:18;99702.84;;;11.77;85.80
61384;BME280;63511;49.346;8.798;2023-04-02T05:38:45;99699.22;;;11.88;84.59
61384;BME280;63511;49.346;8.798;2023-04-02T05:41:16;99706.41;;;11.81;85.23
61384;BME280;63511;49.346;8.798;2023-04-02T05:43:46;99699.53;;;11.78;85.94
61384;BME280;63511;49.346;8.798;2023-04-02T05:46:15;99700.63;;;12.00;84.72
61384;BME280;63511;49.346;8.798;2023-04-02T05:48:42;99705.75;;;11.69;85.51
61384;BME280;63511;49.346;8.798;2023-04-02T05:51:13;99708.63;;;11.44;86.55
61384;BME280;63511;49.346;8.798;2023-04-02T05:53:45;99718.97;;;11.79;86.31
61384;BME280;63511;49.346;8.798;2023-04-02T05:56:14;99723.88;;;12.09;84.00
61384;BME280;63511;49.346;8.798;2023-04-02T05:58:43;99716.72;;;12.34;83.01
61384;BME280;63511;49.346;8.798;2023-04-02T06:01:19;99723.50;;;12.17;84.66
61384;BME280;63511;49.346;8.798;2023-04-02T06:03:52;99727.50;;;11.98;85.51
61384;BME280;63511;49.346;8.798;2023-04-02T06:06:24;99734.56;;;12.03;85.43
61384;BME280;63511;49.346;8.798;2023-04-02T06:08:55;99737.34;;;11.91;86.12
61384;BME280;63511;49.346;8.798;2023-04-02T06:11:24;99740.94;;;12.13;85.80
61384;BME280;63511;49.346;8.798;2023-04-02T06:13:52;99745.53;;;12.36;83.61
61384;BME280;63511;49.346;8.798;2023-04-02T06:16:18;99750.84;;;11.76;85.83
61384;BME280;63511;49.346;8.798;2023-04-02T06:18:45;99752.44;;;12.06;85.93
61384;BME280;63511;49.346;8.798;2023-04-02T06:21:13;99755.19;;;12.11;85.97
61384;BME280;63511;49.346;8.798;2023-04-02T06:23:41;99762.84;;;11.80;85.18
61384;BME280;63511;49.346;8.798;2023-04-02T06:26:13;99763.34;;;12.05;85.76
61384;BME280;63511;49.346;8.798;2023-04-02T06:28:43;99760.88;;;12.39;83.17
61384;BME280;63511;49.346;8.798;2023-04-02T06:31:14;99766.25;;;12.13;84.43
61384;BME280;63511;49.346;8.798;2023-04-02T06:33:42;99771.59;;;11.70;86.49
61384;BME280;63511;49.346;8.798;2023-04-02T06:36:09;99778.41;;;11.57;85.79
61384;BME280;63511;49.346;8.798;2023-04-02T06:38:36;99780.50;;;11.95;86.02
61384;BME280;63511;49.346;8.798;2023-04-02T06:41:03;99778.72;;;11.46;87.71
61384;BME280;63511;49.346;8.798;2023-04-02T06:43:34;99781.28;;;11.63;86.98
61384;BME280;63511;49.346;8.798;2023-04-02T06:46:04;99794.06;;;11.35;88.77
61384;BME280;63511;49.346;8.798;2023-04-02T06:48:32;99798.00;;;11.30;90.20
61384;BME280;63511;49.346;8.798;2023-04-02T06:51:01;99796.69;;;11.36;89.46
61384;BME280;63511;49.346;8.798;2023-04-02T06:53:30;99802.47;;;11.34;90.31
61384;BME280;63511;49.346;8.798;2023-04-02T06:55:59;99808.66;;;11.39;90.08
61384;BME280;63511;49.346;8.798;2023-04-02T06:58:28;99809.78;;;11.44;89.20
61384;BME280;63511;49.346;8.798;2023-04-02T07:00:55;99813.56;;;11.52;88.93
61384;BME280;63511;49.346;8.798;2023-04-02T07:03:23;99824.88;;;11.73;89.46
61384;BME280;63511;49.346;8.798;2023-04-02T07:05:51;99834.06;;;11.57;89.18
61384;BME280;63511;49.346;8.798;2023-04-02T07:08:17;99832.81;;;11.65;89.01
61384;BME280;63511;49.346;8.798;2023-04-02T07:10:44;99833.38;;;11.59;89.25
61384;BME280;63511;49.346;8.798;2023-04-02T07:13:11;99837.56;;;11.44;90.35
61384;BME280;63511;49.346;8.798;2023-04-02T07:15:39;99838.63;;;11.33;90.84
61384;BME280;63511;49.346;8.798;2023-04-02T07:18:07;99842.19;;;11.36;89.71
61384;BME280;63511;49.346;8.798;2023-04-02T07:20:35;99845.47;;;11.79;88.83
61384;BME280;63511;49.346;8.798;2023-04-02T07:23:02;99851.84;;;11.73;89.72
61384;BME280;63511;49.346;8.798;2023-04-02T07:25:28;99844.16;;;11.86;89.36
61384;BME280;63511;49.346;8.798;2023-04-02T07:27:55;99853.44;;;11.87;89.19
61384;BME280;63511;49.346;8.798;2023-04-02T07:30:21;99858.16;;;11.96;88.76
61384;BME280;63511;49.346;8.798;2023-04-02T07:32:48;99867.88;;;12.04;88.09
61384;BME280;63511;49.346;8.798;2023-04-02T07:35:16;99870.72;;;11.94;88.76
61384;BME280;63511;49.346;8.798;2023-04-02T07:37:42;99876.44;;;11.75;89.57
61384;BME280;63511;49.346;8.798;2023-04-02T07:40:13;99880.63;;;11.75;89.98
61384;BME280;63511;49.346;8.798;2023-04-02T07:42:40;99880.88;;;11.79;89.13
61384;BME280;63511;49.346;8.798;2023-04-02T07:45:07;99882.53;;;11.79;89.20
61384;BME280;63511;49.346;8.798;2023-04-02T07:47:33;99883.16;;;11.75;89.63
61384;BME280;63511;49.346;8.798;2023-04-02T07:50:00;99893.06;;;11.86;88.56
61384;BME280;63511;49.346;8.798;2023-04-02T07:52:28;99898.41;;;12.07;88.49
61384;BME280;63511;49.346;8.798;2023-04-02T07:54:55;99898.84;;;11.84;88.59
61384;BME280;63511;49.346;8.798;2023-04-02T07:57:21;99902.78;;;11.64;90.48
61384;BME280;63511;49.346;8.798;2023-04-02T07:59:48;99910.16;;;11.61;90.46
61384;BME280;63511;49.346;8.798;2023-04-02T08:02:17;99901.72;;;11.90;88.32
61384;BME280;63511;49.346;8.798;2023-04-02T08:04:44;99907.16;;;11.98;88.51
61384;BME280;63511;49.346;8.798;2023-04-02T08:07:11;99912.22;;;11.98;89.13
61384;BME280;63511;49.346;8.798;2023-04-02T08:09:38;99916.78;;;11.88;88.31
61384;BME280;63511;49.346;8.798;2023-04-02T08:12:05;99918.41;;;12.03;89.13
61384;BME280;63511;49.346;8.798;2023-04-02T08:14:31;99917.97;;;12.10;88.07
61384;BME280;63511;49.346;8.798;2023-04-02T08:16:58;99922.88;;;12.23;88.21
61384;BME280;63511;49.346;8.798;2023-04-02T08:19:24;99925.59;;;12.26;86.80
61384;BME280;63511;49.346;8.798;2023-04-02T08:21:50;99924.47;;;12.84;85.21
61384;BME280;63511;49.346;8.798;2023-04-02T08:24:18;99928.44;;;12.79;85.01
61384;BME280;63511;49.346;8.798;2023-04-02T08:26:46;99934.19;;;12.93;83.23
61384;BME280;63511;49.346;8.798;2023-04-02T08:29:13;99937.22;;;13.18;82.93
61384;BME280;63511;49.346;8.798;2023-04-02T08:31:40;99949.31;;;12.91;83.83
61384;BME280;63511;49.346;8.798;2023-04-02T08:34:06;99954.28;;;13.06;81.49
61384;BME280;63511;49.346;8.798;2023-04-02T08:36:34;99953.59;;;12.92;83.38
61384;BME280;63511;49.346;8.798;2023-04-02T08:39:01;99953.75;;;12.63;83.41
61384;BME280;63511;49.346;8.798;2023-04-02T08:41:29;99964.50;;;12.75;83.43
61384;BME280;63511;49.346;8.798;2023-04-02T08:44:08;99963.50;;;12.88;82.80
61384;BME280;63511;49.346;8.798;2023-04-02T08:46:40;99969.13;;;12.82;82.33
61384;BME280;63511;49.346;8.798;2023-04-02T08:49:10;99972.28;;;12.78;82.51
61384;BME280;63511;49.346;8.798;2023-04-02T08:51:37;99976.63;;;12.81;84.07
61384;BME280;63511;49.346;8.798;2023-04-02T08:54:05;99982.34;;;12.93;83.06
61384;BME280;63511;49.346;8.798;2023-04-02T08:56:35;99983.31;;;13.27;80.82
61384;BME280;63511;49.346;8.798;2023-04-02T08:59:08;99980.22;;;13.00;82.33
61384;BME280;63511;49.346;8.798;2023-04-02T09:01:41;99985.19;;;12.83;82.84
61384;BME280;63511;49.346;8.798;2023-04-02T09:04:12;99997.53;;;12.76;83.88
61384;BME280;63511;49.346;8.798;2023-04-02T09:06:40;99992.41;;;12.91;83.47
61384;BME280;63511;49.346;8.798;2023-04-02T09:09:07;99994.50;;;13.14;82.11
61384;BME280;63511;49.346;8.798;2023-04-02T09:11:38;99995.38;;;13.15;82.05
61384;BME280;63511;49.346;8.798;2023-04-02T09:14:11;100001.22;;;13.30;82.06
61384;BME280;63511;49.346;8.798;2023-04-02T09:16:40;99999.41;;;13.78;79.73
61384;BME280;63511;49.346;8.798;2023-04-02T09:19:13;100005.78;;;13.53;81.01
61384;BME280;63511;49.346;8.798;2023-04-02T09:21:40;100008.66;;;13.43;81.12
61384;BME280;63511;49.346;8.798;2023-04-02T09:24:10;100010.59;;;13.65;78.29
61384;BME280;63511;49.346;8.798;2023-04-02T09:26:37;100010.78;;;13.52;80.14
61384;BME280;63511;49.346;8.798;2023-04-02T09:29:14;100018.66;;;13.24;81.08
61384;BME280;63511;49.346;8.798;2023-04-02T09:31:45;100020.13;;;13.53;78.92
61384;BME280;63511;49.346;8.798;2023-04-02T09:34:27;100032.31;;;13.76;79.32
61384;BME280;63511;49.346;8.798;2023-04-02T09:36:54;100022.63;;;14.56;73.96
61384;BME280;63511;49.346;8.798;2023-04-02T09:39:21;100028.38;;;14.34;75.49
61384;BME280;63511;49.346;8.798;2023-04-02T09:41:49;100035.56;;;13.57;77.06
61384;BME280;63511;49.346;8.798;2023-04-02T09:44:21;100035.41;;;13.71;75.79
61384;BME280;63511;49.346;8.798;2023-04-02T09:46:49;100042.31;;;14.42;76.21
61384;BME280;63511;49.346;8.798;2023-04-02T09:49:17;100037.72;;;13.84;75.97
61384;BME280;63511;49.346;8.798;2023-04-02T09:51:44;100038.00;;;14.06;76.56
61384;BME280;63511;49.346;8.798;2023-04-02T09:54:12;100046.13;;;14.17;76.31
61384;BME280;63511;49.346;8.798;2023-04-02T09:56:42;100045.06;;;14.47;76.34
61384;BME280;63511;49.346;8.798;2023-04-02T10:01:59;100051.06;;;14.31;75.78
61384;BME280;63511;49.346;8.798;2023-04-02T10:04:34;100054.06;;;14.40;74.00
61384;BME280;63511;49.346;8.798;2023-04-02T10:10:05;100053.53;;;15.58;67.79
61384;BME280;63511;49.346;8.798;2023-04-02T10:12:40;100058.75;;;14.86;72.21
61384;BME280;63511;49.346;8.798;2023-04-02T10:15:11;100064.69;;;14.50;72.47
61384;BME280;63511;49.346;8.798;2023-04-02T10:17:41;100061.59;;;14.57;73.42
61384;BME280;63511;49.346;8.798;2023-04-02T10:20:13;100066.53;;;14.18;73.46
61384;BME280;63511;49.346;8.798;2023-04-02T10:22:42;100078.66;;;14.24;75.80
61384;BME280;63511;49.346;8.798;2023-04-02T10:25:12;100078.16;;;14.66;73.35
61384;BME280;63511;49.346;8.798;2023-04-02T10:27:41;100076.19;;;14.78;71.63
61384;BME280;63511;49.346;8.798;2023-04-02T10:30:17;100075.47;;;14.81;73.06
61384;BME280;63511;49.346;8.798;2023-04-02T10:32:47;100076.97;;;14.95;70.08
61384;BME280;63511;49.346;8.798;2023-04-02T10:35:18;100080.06;;;15.84;67.78
61384;BME280;63511;49.346;8.798;2023-04-02T10:37:56;100085.56;;;14.97;68.93
61384;BME280;63511;49.346;8.798;2023-04-02T10:40:26;100091.44;;;14.78;70.16
61384;BME280;63511;49.346;8.798;2023-04-02T10:42:57;100083.34;;;15.05;72.93
61384;BME280;63511;49.346;8.798;2023-04-02T10:45:29;100090.94;;;15.22;73.05
61384;BME280;63511;49.346;8.798;2023-04-02T10:48:01;100089.91;;;15.19;71.74
61384;BME280;63511;49.346;8.798;2023-04-02T10:50:30;100098.25;;;14.97;72.17
61384;BME280;63511;49.346;8.798;2023-04-02T10:53:01;100095.16;;;15.80;67.28
61384;BME280;63511;49.346;8.798;2023-04-02T10:55:34;100094.06;;;16.35;64.94
61384;BME280;63511;49.346;8.798;2023-04-02T10:58:11;100098.22;;;16.12;64.90
61384;BME280;63511;49.346;8.798;2023-04-02T11:00:39;100100.22;;;16.20;64.16
61384;BME280;63511;49.346;8.798;2023-04-02T11:03:12;100100.75;;;15.52;66.70
61384;BME280;63511;49.346;8.798;2023-04-02T11:05:39;100109.03;;;15.67;69.23
61384;BME280;63511;49.346;8.798;2023-04-02T11:08:10;100105.72;;;15.31;71.09
61384;BME280;63511;49.346;8.798;2023-04-02T11:10:43;100104.84;;;15.88;67.90
61384;BME280;63511;49.346;8.798;2023-04-02T11:13:12;100114.09;;;15.86;66.34
61384;BME280;63511;49.346;8.798;2023-04-02T11:15:43;100118.16;;;15.62;69.02
61384;BME280;63511;49.346;8.798;2023-04-02T11:18:20;100116.88;;;15.71;68.92
61384;BME280;63511;49.346;8.798;2023-04-02T11:20:57;100120.22;;;15.90;63.94
61384;BME280;63511;49.346;8.798;2023-04-02T11:23:25;100127.59;;;15.84;64.26
61384;BME280;63511;49.346;8.798;2023-04-02T11:26:05;100131.91;;;15.48;67.12
61384;BME280;63511;49.346;8.798;2023-04-02T11:28:59;100140.13;;;14.86;71.41
61384;BME280;63511;49.346;8.798;2023-04-02T11:31:26;100147.75;;;14.86;70.39
61384;BME280;63511;49.346;8.798;2023-04-02T11:33:53;100154.47;;;14.16;73.34
61384;BME280;63511;49.346;8.798;2023-04-02T11:39:08;100189.22;;;12.91;76.90
61384;BME280;63511;49.346;8.798;2023-04-02T11:44:25;100196.97;;;12.48;78.03
61384;BME280;63511;49.346;8.798;2023-04-02T11:46:52;100202.81;;;12.47;80.12
61384;BME280;63511;49.346;8.798;2023-04-02T11:49:40;100210.34;;;12.18;82.65
61384;BME280;63511;49.346;8.798;2023-04-02T11:52:22;100203.06;;;12.22;83.05
61384;BME280;63511;49.346;8.798;2023-04-02T11:54:56;100211.56;;;11.95;82.65
61384;BME280;63511;49.346;8.798;2023-04-02T11:57:26;100209.06;;;12.10;82.16
61384;BME280;63511;49.346;8.798;2023-04-02T12:00:02;100214.72;;;12.06;83.94
61384;BME280;63511;49.346;8.798;2023-04-02T12:02:35;100219.94;;;11.94;85.56
61384;BME280;63511;49.346;8.798;2023-04-02T12:05:09;100235.44;;;11.85;85.06
61384;BME280;63511;49.346;8.798;2023-04-02T12:10:56;100232.31;;;12.17;85.27
61384;BME280;63511;49.346;8.798;2023-04-02T12:16:08;100236.22;;;12.12;85.23
61384;BME280;63511;49.346;8.798;2023-04-02T12:18:35;100242.06;;;11.83;84.90
61384;BME280;63511;49.346;8.798;2023-04-02T12:21:08;100244.97;;;11.76;86.14
61384;BME280;63511;49.346;8.798;2023-04-02T12:23:40;100244.59;;;11.83;85.82
61384;BME280;63511;49.346;8.798;2023-04-02T12:26:22;100250.41;;;11.82;85.48
61384;BME280;63511;49.346;8.798;2023-04-02T12:28:52;100255.16;;;12.19;84.70
61384;BME280;63511;49.346;8.798;2023-04-02T12:31:20;100255.47;;;12.38;83.40
61384;BME280;63511;49.346;8.798;2023-04-02T12:33:50;100263.31;;;12.00;84.38
61384;BME280;63511;49.346;8.798;2023-04-02T12:36:19;100264.13;;;12.14;83.54
61384;BME280;63511;49.346;8.798;2023-04-02T12:38:46;100268.41;;;12.43;82.96
61384;BME280;63511;49.346;8.798;2023-04-02T12:41:20;100275.28;;;12.45;83.39
61384;BME280;63511;49.346;8.798;2023-04-02T12:43:55;100282.47;;;12.52;81.53
61384;BME280;63511;49.346;8.798;2023-04-02T12:46:22;100287.19;;;12.18;83.93
61384;BME280;63511;49.346;8.798;2023-04-02T12:48:50;100291.47;;;12.47;83.53
61384;BME280;63511;49.346;8.798;2023-04-02T12:51:16;100293.78;;;12.44;81.67
61384;BME280;63511;49.346;8.798;2023-04-02T12:53:47;100303.59;;;12.53;83.71
61384;BME280;63511;49.346;8.798;2023-04-02T12:56:17;100298.97;;;12.60;81.00
61384;BME280;63511;49.346;8.798;2023-04-02T12:58:45;100297.84;;;12.55;81.00
61384;BME280;63511;49.346;8.798;2023-04-02T13:01:17;100302.84;;;12.54;80.56
61384;BME280;63511;49.346;8.798;2023-04-02T13:03:57;100303.13;;;12.30;80.87
61384;BME280;63511;49.346;8.798;2023-04-02T13:06:24;100316.28;;;12.25;82.53
61384;BME280;63511;49.346;8.798;2023-04-02T13:08:53;100317.28;;;12.14;80.30
61384;BME280;63511;49.346;8.798;2023-04-02T13:11:19;100310.81;;;12.04;79.68
61384;BME280;63511;49.346;8.798;2023-04-02T13:13:47;100323.19;;;11.86;79.47
61384;BME280;63511;49.346;8.798;2023-04-02T13:16:23;100326.31;;;11.69;79.26
61384;BME280;63511;49.346;8.798;2023-04-02T13:18:51;100331.66;;;11.87;79.64
61384;BME280;63511;49.346;8.798;2023-04-02T13:21:33;100331.88;;;11.77;81.31
61384;BME280;63511;49.346;8.798;2023-04-02T13:24:01;100326.00;;;12.04;79.94
61384;BME280;63511;49.346;8.798;2023-04-02T13:26:28;100334.56;;;12.06;80.27
61384;BME280;63511;49.346;8.798;2023-04-02T13:28:55;100335.56;;;12.23;79.12